Rogers, Nebraska
Current Conditions -  °F | °C
As of 12:55 AM on Tuesday 21 Oct 2014 (Local Time) from KFET Reporting Station
Haze Haze  
Wind Chill: 45°   Ceiling: 700
Heat Index: 45°   Visibility: 1mi
Dew Point: 43°   Wind: 0mph
Humidity: 93%   Direction: NA
Pressure: 30.06"   Gusts: NA
Location:  41.47°N, 96.92°W
Report Text: KFET 210555Z AUTO 00000KT 1SM BR VV007 07/06 A3006 RMK AO2 T00700059 10162 20066 402250056
Loading
Personal Weather Stations






























Interactive Weather Map
Tropical Storm Tracking
New forecast layout! Learn more

10-Day Weather Forecast

Advertisements
Track Severe Weather on mobile